sensor_id;sensor_type;location;lat;lon;timestamp;P1;durP1;ratioP1;P2;durP2;ratioP2
42616;SDS011;28250;52.320;0.360;2023-05-20T00:01:42;9.35;;;5.72;;
42616;SDS011;28250;52.320;0.360;2023-05-20T00:04:08;15.70;;;5.47;;
42616;SDS011;28250;52.320;0.360;2023-05-20T00:06:34;9.77;;;5.30;;
42616;SDS011;28250;52.320;0.360;2023-05-20T00:09:00;11.05;;;5.45;;
42616;SDS011;28250;52.320;0.360;2023-05-20T00:11:26;9.73;;;5.68;;
42616;SDS011;28250;52.320;0.360;2023-05-20T00:13:52;8.85;;;4.80;;
42616;SDS011;28250;52.320;0.360;2023-05-20T00:16:18;10.40;;;5.97;;
42616;SDS011;28250;52.320;0.360;2023-05-20T00:18:44;8.95;;;5.05;;
42616;SDS011;28250;52.320;0.360;2023-05-20T00:21:11;13.35;;;5.95;;
42616;SDS011;28250;52.320;0.360;2023-05-20T00:23:37;12.13;;;5.70;;
42616;SDS011;28250;52.320;0.360;2023-05-20T00:26:03;15.85;;;5.93;;
42616;SDS011;28250;52.320;0.360;2023-05-20T00:28:29;16.88;;;6.18;;
42616;SDS011;28250;52.320;0.360;2023-05-20T00:30:59;13.60;;;5.47;;
42616;SDS011;28250;52.320;0.360;2023-05-20T00:33:25;11.25;;;6.55;;
42616;SDS011;28250;52.320;0.360;2023-05-20T00:35:51;10.13;;;5.25;;
42616;SDS011;28250;52.320;0.360;2023-05-20T00:38:17;13.93;;;5.72;;
42616;SDS011;28250;52.320;0.360;2023-05-20T00:40:43;9.48;;;5.95;;
42616;SDS011;28250;52.320;0.360;2023-05-20T00:43:28;15.74;;;5.77;;
42616;SDS011;28250;52.320;0.360;2023-05-20T00:45:54;11.90;;;6.57;;
42616;SDS011;28250;52.320;0.360;2023-05-20T00:48:21;10.10;;;5.80;;
42616;SDS011;28250;52.320;0.360;2023-05-20T00:50:48;10.35;;;5.22;;
42616;SDS011;28250;52.320;0.360;2023-05-20T00:53:17;8.27;;;5.63;;
42616;SDS011;28250;52.320;0.360;2023-05-20T00:55:45;10.82;;;5.90;;
42616;SDS011;28250;52.320;0.360;2023-05-20T00:58:11;13.93;;;6.28;;
42616;SDS011;28250;52.320;0.360;2023-05-20T01:00:38;12.50;;;6.47;;
42616;SDS011;28250;52.320;0.360;2023-05-20T01:03:04;10.10;;;5.55;;
42616;SDS011;28250;52.320;0.360;2023-05-20T01:05:31;11.23;;;6.00;;
42616;SDS011;28250;52.320;0.360;2023-05-20T01:07:57;12.35;;;6.10;;
42616;SDS011;28250;52.320;0.360;2023-05-20T01:10:23;11.00;;;6.05;;
42616;SDS011;28250;52.320;0.360;2023-05-20T01:12:53;14.77;;;6.05;;
42616;SDS011;28250;52.320;0.360;2023-05-20T01:15:23;13.50;;;6.30;;
42616;SDS011;28250;52.320;0.360;2023-05-20T01:17:55;10.68;;;5.88;;
42616;SDS011;28250;52.320;0.360;2023-05-20T01:20:27;14.10;;;6.07;;
42616;SDS011;28250;52.320;0.360;2023-05-20T01:22:56;11.27;;;5.93;;
42616;SDS011;28250;52.320;0.360;2023-05-20T01:25:23;10.27;;;5.50;;
42616;SDS011;28250;52.320;0.360;2023-05-20T01:27:51;11.38;;;6.38;;
42616;SDS011;28250;52.320;0.360;2023-05-20T01:30:22;13.20;;;5.88;;
42616;SDS011;28250;52.320;0.360;2023-05-20T01:33:00;11.93;;;5.63;;
42616;SDS011;28250;52.320;0.360;2023-05-20T01:35:36;14.32;;;7.07;;
42616;SDS011;28250;52.320;0.360;2023-05-20T01:40:31;11.15;;;5.85;;
42616;SDS011;28250;52.320;0.360;2023-05-20T01:42:58;13.55;;;6.43;;
42616;SDS011;28250;52.320;0.360;2023-05-20T01:45:27;15.43;;;5.88;;
42616;SDS011;28250;52.320;0.360;2023-05-20T01:47:53;8.57;;;5.35;;
42616;SDS011;28250;52.320;0.360;2023-05-20T01:50:20;14.50;;;6.38;;
42616;SDS011;28250;52.320;0.360;2023-05-20T01:52:46;10.77;;;5.80;;
42616;SDS011;28250;52.320;0.360;2023-05-20T01:55:12;10.55;;;5.95;;
42616;SDS011;28250;52.320;0.360;2023-05-20T01:57:38;12.50;;;5.40;;
42616;SDS011;28250;52.320;0.360;2023-05-20T02:00:05;12.85;;;6.40;;
42616;SDS011;28250;52.320;0.360;2023-05-20T02:02:43;12.18;;;6.07;;
42616;SDS011;28250;52.320;0.360;2023-05-20T02:05:11;11.00;;;5.85;;
42616;SDS011;28250;52.320;0.360;2023-05-20T02:07:41;16.23;;;7.10;;
42616;SDS011;28250;52.320;0.360;2023-05-20T02:10:07;8.43;;;6.00;;
42616;SDS011;28250;52.320;0.360;2023-05-20T02:12:35;10.40;;;6.40;;
42616;SDS011;28250;52.320;0.360;2023-05-20T02:15:01;10.40;;;5.78;;
42616;SDS011;28250;52.320;0.360;2023-05-20T02:17:29;10.18;;;6.32;;
42616;SDS011;28250;52.320;0.360;2023-05-20T02:19:56;14.85;;;6.38;;
42616;SDS011;28250;52.320;0.360;2023-05-20T02:22:22;12.50;;;6.47;;
42616;SDS011;28250;52.320;0.360;2023-05-20T02:24:48;13.18;;;6.78;;
42616;SDS011;28250;52.320;0.360;2023-05-20T02:27:15;11.10;;;5.90;;
42616;SDS011;28250;52.320;0.360;2023-05-20T02:29:42;11.57;;;5.82;;
42616;SDS011;28250;52.320;0.360;2023-05-20T02:32:12;11.07;;;6.03;;
42616;SDS011;28250;52.320;0.360;2023-05-20T02:34:39;12.52;;;5.88;;
42616;SDS011;28250;52.320;0.360;2023-05-20T02:37:05;10.10;;;6.53;;
42616;SDS011;28250;52.320;0.360;2023-05-20T02:39:31;14.68;;;7.20;;
42616;SDS011;28250;52.320;0.360;2023-05-20T02:41:57;15.40;;;5.97;;
42616;SDS011;28250;52.320;0.360;2023-05-20T02:44:23;11.25;;;5.88;;
42616;SDS011;28250;52.320;0.360;2023-05-20T02:46:50;13.52;;;6.57;;
42616;SDS011;28250;52.320;0.360;2023-05-20T02:49:16;11.73;;;6.15;;
42616;SDS011;28250;52.320;0.360;2023-05-20T02:51:42;17.45;;;6.90;;
42616;SDS011;28250;52.320;0.360;2023-05-20T02:54:08;18.75;;;7.35;;
42616;SDS011;28250;52.320;0.360;2023-05-20T02:56:35;12.32;;;6.90;;
42616;SDS011;28250;52.320;0.360;2023-05-20T02:59:01;10.38;;;5.80;;
42616;SDS011;28250;52.320;0.360;2023-05-20T03:01:29;17.23;;;6.43;;
42616;SDS011;28250;52.320;0.360;2023-05-20T03:03:55;10.35;;;6.00;;
42616;SDS011;28250;52.320;0.360;2023-05-20T03:06:22;13.32;;;5.75;;
42616;SDS011;28250;52.320;0.360;2023-05-20T03:08:48;10.70;;;5.68;;
42616;SDS011;28250;52.320;0.360;2023-05-20T03:11:14;11.48;;;5.93;;
42616;SDS011;28250;52.320;0.360;2023-05-20T03:13:40;12.88;;;6.05;;
42616;SDS011;28250;52.320;0.360;2023-05-20T03:16:06;13.20;;;5.47;;
42616;SDS011;28250;52.320;0.360;2023-05-20T03:18:33;12.20;;;5.78;;
42616;SDS011;28250;52.320;0.360;2023-05-20T03:20:59;14.38;;;5.93;;
42616;SDS011;28250;52.320;0.360;2023-05-20T03:23:25;13.82;;;5.78;;
42616;SDS011;28250;52.320;0.360;2023-05-20T03:25:52;12.10;;;5.68;;
42616;SDS011;28250;52.320;0.360;2023-05-20T03:28:17;10.80;;;5.75;;
42616;SDS011;28250;52.320;0.360;2023-05-20T03:30:44;13.07;;;5.88;;
42616;SDS011;28250;52.320;0.360;2023-05-20T03:33:10;13.23;;;6.17;;
42616;SDS011;28250;52.320;0.360;2023-05-20T03:35:37;15.88;;;6.03;;
42616;SDS011;28250;52.320;0.360;2023-05-20T03:38:03;11.98;;;5.28;;
42616;SDS011;28250;52.320;0.360;2023-05-20T03:40:31;9.18;;;5.28;;
42616;SDS011;28250;52.320;0.360;2023-05-20T03:42:57;13.23;;;6.10;;
42616;SDS011;28250;52.320;0.360;2023-05-20T03:45:24;13.13;;;5.50;;
42616;SDS011;28250;52.320;0.360;2023-05-20T03:47:57;12.52;;;5.72;;
42616;SDS011;28250;52.320;0.360;2023-05-20T03:50:23;13.50;;;5.75;;
42616;SDS011;28250;52.320;0.360;2023-05-20T03:52:49;11.88;;;5.15;;
42616;SDS011;28250;52.320;0.360;2023-05-20T03:55:18;12.38;;;5.43;;
42616;SDS011;28250;52.320;0.360;2023-05-20T03:57:45;12.13;;;5.15;;
42616;SDS011;28250;52.320;0.360;2023-05-20T04:00:11;11.90;;;5.53;;
42616;SDS011;28250;52.320;0.360;2023-05-20T04:02:47;14.27;;;5.55;;
42616;SDS011;28250;52.320;0.360;2023-05-20T04:05:16;14.05;;;5.78;;
42616;SDS011;28250;52.320;0.360;2023-05-20T04:07:43;17.05;;;6.30;;
42616;SDS011;28250;52.320;0.360;2023-05-20T04:10:11;13.68;;;6.40;;
42616;SDS011;28250;52.320;0.360;2023-05-20T04:12:37;12.15;;;5.82;;
42616;SDS011;28250;52.320;0.360;2023-05-20T04:15:04;10.63;;;5.60;;
42616;SDS011;28250;52.320;0.360;2023-05-20T04:17:40;11.20;;;5.40;;
42616;SDS011;28250;52.320;0.360;2023-05-20T04:20:07;12.77;;;5.78;;
42616;SDS011;28250;52.320;0.360;2023-05-20T04:22:35;14.48;;;6.85;;
42616;SDS011;28250;52.320;0.360;2023-05-20T04:25:04;14.52;;;6.07;;
42616;SDS011;28250;52.320;0.360;2023-05-20T04:27:31;14.23;;;6.20;;
42616;SDS011;28250;52.320;0.360;2023-05-20T04:30:03;15.15;;;5.95;;
42616;SDS011;28250;52.320;0.360;2023-05-20T04:32:33;13.38;;;5.88;;
42616;SDS011;28250;52.320;0.360;2023-05-20T04:34:59;13.52;;;4.95;;
42616;SDS011;28250;52.320;0.360;2023-05-20T04:37:27;13.20;;;6.13;;
42616;SDS011;28250;52.320;0.360;2023-05-20T04:39:53;15.57;;;5.18;;
42616;SDS011;28250;52.320;0.360;2023-05-20T04:42:19;12.38;;;5.57;;
42616;SDS011;28250;52.320;0.360;2023-05-20T04:44:47;15.55;;;6.07;;
42616;SDS011;28250;52.320;0.360;2023-05-20T04:47:13;15.30;;;5.95;;
42616;SDS011;28250;52.320;0.360;2023-05-20T04:49:40;13.07;;;5.72;;
42616;SDS011;28250;52.320;0.360;2023-05-20T04:52:06;12.18;;;5.45;;
42616;SDS011;28250;52.320;0.360;2023-05-20T04:54:32;10.73;;;5.55;;
42616;SDS011;28250;52.320;0.360;2023-05-20T04:56:58;11.82;;;5.82;;
42616;SDS011;28250;52.320;0.360;2023-05-20T04:59:25;10.90;;;5.30;;
42616;SDS011;28250;52.320;0.360;2023-05-20T05:01:51;14.48;;;5.70;;
42616;SDS011;28250;52.320;0.360;2023-05-20T05:04:18;13.55;;;5.78;;
42616;SDS011;28250;52.320;0.360;2023-05-20T05:06:44;14.68;;;5.22;;
42616;SDS011;28250;52.320;0.360;2023-05-20T05:09:14;15.80;;;5.28;;
42616;SDS011;28250;52.320;0.360;2023-05-20T05:11:41;16.17;;;5.13;;
42616;SDS011;28250;52.320;0.360;2023-05-20T05:14:08;10.85;;;5.45;;
42616;SDS011;28250;52.320;0.360;2023-05-20T05:16:34;11.50;;;5.28;;
42616;SDS011;28250;52.320;0.360;2023-05-20T05:19:01;14.75;;;5.32;;
42616;SDS011;28250;52.320;0.360;2023-05-20T05:21:30;14.82;;;5.57;;
42616;SDS011;28250;52.320;0.360;2023-05-20T05:23:56;10.57;;;4.63;;
42616;SDS011;28250;52.320;0.360;2023-05-20T05:26:22;13.32;;;4.97;;
42616;SDS011;28250;52.320;0.360;2023-05-20T05:28:48;11.40;;;4.82;;
42616;SDS011;28250;52.320;0.360;2023-05-20T05:31:15;10.52;;;5.25;;
42616;SDS011;28250;52.320;0.360;2023-05-20T05:33:41;15.00;;;6.03;;
42616;SDS011;28250;52.320;0.360;2023-05-20T05:36:07;11.73;;;5.05;;
42616;SDS011;28250;52.320;0.360;2023-05-20T05:38:33;12.75;;;5.45;;
42616;SDS011;28250;52.320;0.360;2023-05-20T05:40:59;20.98;;;5.03;;
42616;SDS011;28250;52.320;0.360;2023-05-20T05:43:26;11.50;;;4.97;;
42616;SDS011;28250;52.320;0.360;2023-05-20T05:45:52;12.43;;;4.95;;
42616;SDS011;28250;52.320;0.360;2023-05-20T05:48:18;9.57;;;5.22;;
42616;SDS011;28250;52.320;0.360;2023-05-20T05:50:46;13.52;;;4.97;;
42616;SDS011;28250;52.320;0.360;2023-05-20T05:53:14;11.07;;;4.35;;
42616;SDS011;28250;52.320;0.360;2023-05-20T05:55:46;13.43;;;5.90;;
42616;SDS011;28250;52.320;0.360;2023-05-20T05:58:14;9.32;;;4.97;;
42616;SDS011;28250;52.320;0.360;2023-05-20T06:00:40;16.57;;;4.97;;
42616;SDS011;28250;52.320;0.360;2023-05-20T06:03:06;12.05;;;4.95;;
42616;SDS011;28250;52.320;0.360;2023-05-20T06:05:35;9.65;;;4.57;;
42616;SDS011;28250;52.320;0.360;2023-05-20T06:08:02;14.25;;;5.80;;
42616;SDS011;28250;52.320;0.360;2023-05-20T06:10:30;10.15;;;4.80;;
42616;SDS011;28250;52.320;0.360;2023-05-20T06:12:56;15.98;;;5.82;;
42616;SDS011;28250;52.320;0.360;2023-05-20T06:15:23;13.52;;;4.60;;
42616;SDS011;28250;52.320;0.360;2023-05-20T06:17:50;17.37;;;5.40;;
42616;SDS011;28250;52.320;0.360;2023-05-20T06:20:16;12.43;;;5.05;;
42616;SDS011;28250;52.320;0.360;2023-05-20T06:22:42;12.60;;;4.75;;
42616;SDS011;28250;52.320;0.360;2023-05-20T06:25:08;17.38;;;4.85;;
42616;SDS011;28250;52.320;0.360;2023-05-20T06:27:35;16.10;;;5.32;;
42616;SDS011;28250;52.320;0.360;2023-05-20T06:30:02;15.63;;;4.85;;
42616;SDS011;28250;52.320;0.360;2023-05-20T06:32:29;8.32;;;4.22;;
42616;SDS011;28250;52.320;0.360;2023-05-20T06:34:56;15.73;;;5.22;;
42616;SDS011;28250;52.320;0.360;2023-05-20T06:37:23;16.17;;;5.72;;
42616;SDS011;28250;52.320;0.360;2023-05-20T06:39:50;16.90;;;5.13;;
42616;SDS011;28250;52.320;0.360;2023-05-20T06:42:19;10.70;;;4.47;;
42616;SDS011;28250;52.320;0.360;2023-05-20T06:44:54;14.20;;;4.95;;
42616;SDS011;28250;52.320;0.360;2023-05-20T06:47:33;13.93;;;4.60;;
42616;SDS011;28250;52.320;0.360;2023-05-20T06:50:01;14.32;;;5.13;;
42616;SDS011;28250;52.320;0.360;2023-05-20T06:52:28;13.75;;;4.65;;
42616;SDS011;28250;52.320;0.360;2023-05-20T06:54:54;11.63;;;4.90;;
42616;SDS011;28250;52.320;0.360;2023-05-20T06:57:21;16.08;;;5.18;;
42616;SDS011;28250;52.320;0.360;2023-05-20T06:59:48;10.95;;;4.68;;
42616;SDS011;28250;52.320;0.360;2023-05-20T07:02:15;9.55;;;4.95;;
42616;SDS011;28250;52.320;0.360;2023-05-20T07:04:41;14.50;;;5.13;;
42616;SDS011;28250;52.320;0.360;2023-05-20T07:07:07;12.93;;;4.32;;
42616;SDS011;28250;52.320;0.360;2023-05-20T07:09:34;8.15;;;5.38;;
42616;SDS011;28250;52.320;0.360;2023-05-20T07:12:01;11.98;;;5.07;;
42616;SDS011;28250;52.320;0.360;2023-05-20T07:14:28;16.10;;;5.93;;
42616;SDS011;28250;52.320;0.360;2023-05-20T07:16:55;15.07;;;4.60;;
42616;SDS011;28250;52.320;0.360;2023-05-20T07:19:21;13.35;;;5.00;;
42616;SDS011;28250;52.320;0.360;2023-05-20T07:21:47;10.93;;;4.88;;
42616;SDS011;28250;52.320;0.360;2023-05-20T07:24:44;11.90;;;4.95;;
42616;SDS011;28250;52.320;0.360;2023-05-20T07:27:10;15.25;;;5.05;;
42616;SDS011;28250;52.320;0.360;2023-05-20T07:29:36;13.75;;;5.00;;
42616;SDS011;28250;52.320;0.360;2023-05-20T07:32:07;12.25;;;4.47;;
42616;SDS011;28250;52.320;0.360;2023-05-20T07:34:34;10.27;;;4.57;;
42616;SDS011;28250;52.320;0.360;2023-05-20T07:37:00;10.80;;;4.27;;
42616;SDS011;28250;52.320;0.360;2023-05-20T07:39:26;10.05;;;4.47;;
42616;SDS011;28250;52.320;0.360;2023-05-20T07:41:53;11.23;;;4.25;;
42616;SDS011;28250;52.320;0.360;2023-05-20T07:44:19;11.85;;;4.88;;
42616;SDS011;28250;52.320;0.360;2023-05-20T07:46:48;6.60;;;4.43;;
42616;SDS011;28250;52.320;0.360;2023-05-20T07:49:14;16.88;;;5.00;;
42616;SDS011;28250;52.320;0.360;2023-05-20T07:51:41;10.57;;;4.38;;
42616;SDS011;28250;52.320;0.360;2023-05-20T07:54:07;10.65;;;5.03;;
42616;SDS011;28250;52.320;0.360;2023-05-20T07:56:35;9.85;;;4.70;;
42616;SDS011;28250;52.320;0.360;2023-05-20T07:59:01;12.40;;;5.13;;
42616;SDS011;28250;52.320;0.360;2023-05-20T08:01:36;14.13;;;4.10;;
42616;SDS011;28250;52.320;0.360;2023-05-20T08:04:04;14.38;;;4.03;;
42616;SDS011;28250;52.320;0.360;2023-05-20T08:06:31;13.15;;;4.45;;
42616;SDS011;28250;52.320;0.360;2023-05-20T08:09:00;11.57;;;4.53;;
42616;SDS011;28250;52.320;0.360;2023-05-20T08:11:31;10.93;;;4.28;;
42616;SDS011;28250;52.320;0.360;2023-05-20T08:13:59;12.00;;;4.82;;
42616;SDS011;28250;52.320;0.360;2023-05-20T08:16:29;12.40;;;3.83;;
42616;SDS011;28250;52.320;0.360;2023-05-20T08:18:55;11.85;;;4.07;;
42616;SDS011;28250;52.320;0.360;2023-05-20T08:21:21;7.97;;;4.28;;
42616;SDS011;28250;52.320;0.360;2023-05-20T08:23:51;7.05;;;3.83;;
42616;SDS011;28250;52.320;0.360;2023-05-20T08:26:17;10.52;;;3.58;;
42616;SDS011;28250;52.320;0.360;2023-05-20T08:28:43;8.60;;;3.72;;
42616;SDS011;28250;52.320;0.360;2023-05-20T08:31:11;11.57;;;3.92;;
42616;SDS011;28250;52.320;0.360;2023-05-20T08:33:37;17.40;;;4.07;;
42616;SDS011;28250;52.320;0.360;2023-05-20T08:36:03;9.40;;;3.85;;
42616;SDS011;28250;52.320;0.360;2023-05-20T08:38:32;9.73;;;3.25;;
42616;SDS011;28250;52.320;0.360;2023-05-20T08:40:58;9.00;;;3.88;;
42616;SDS011;28250;52.320;0.360;2023-05-20T08:43:25;11.27;;;3.83;;
42616;SDS011;28250;52.320;0.360;2023-05-20T08:45:54;8.63;;;3.42;;
42616;SDS011;28250;52.320;0.360;2023-05-20T08:48:24;7.53;;;3.85;;
42616;SDS011;28250;52.320;0.360;2023-05-20T08:50:55;11.50;;;4.10;;
42616;SDS011;28250;52.320;0.360;2023-05-20T08:53:22;8.10;;;4.20;;
42616;SDS011;28250;52.320;0.360;2023-05-20T08:58:24;5.20;;;3.42;;
42616;SDS011;28250;52.320;0.360;2023-05-20T09:00:52;10.48;;;4.00;;
42616;SDS011;28250;52.320;0.360;2023-05-20T09:03:18;8.80;;;4.05;;
42616;SDS011;28250;52.320;0.360;2023-05-20T09:05:46;11.05;;;3.85;;
42616;SDS011;28250;52.320;0.360;2023-05-20T09:08:12;7.85;;;3.45;;
42616;SDS011;28250;52.320;0.360;2023-05-20T09:10:39;6.63;;;3.30;;
42616;SDS011;28250;52.320;0.360;2023-05-20T09:13:07;8.48;;;3.38;;
42616;SDS011;28250;52.320;0.360;2023-05-20T09:15:37;12.00;;;3.42;;
42616;SDS011;28250;52.320;0.360;2023-05-20T09:18:04;6.00;;;3.17;;
42616;SDS011;28250;52.320;0.360;2023-05-20T09:20:35;6.68;;;3.90;;
42616;SDS011;28250;52.320;0.360;2023-05-20T09:23:03;11.20;;;3.38;;
42616;SDS011;28250;52.320;0.360;2023-05-20T09:25:31;5.60;;;2.83;;
42616;SDS011;28250;52.320;0.360;2023-05-20T09:27:58;6.30;;;2.90;;
42616;SDS011;28250;52.320;0.360;2023-05-20T09:30:24;5.95;;;3.53;;
42616;SDS011;28250;52.320;0.360;2023-05-20T09:32:51;6.43;;;3.30;;
42616;SDS011;28250;52.320;0.360;2023-05-20T09:35:22;8.60;;;3.15;;
42616;SDS011;28250;52.320;0.360;2023-05-20T09:37:51;4.68;;;2.80;;
42616;SDS011;28250;52.320;0.360;2023-05-20T09:40:26;8.13;;;3.40;;
42616;SDS011;28250;52.320;0.360;2023-05-20T09:43:04;7.97;;;2.90;;
42616;SDS011;28250;52.320;0.360;2023-05-20T09:45:32;8.32;;;3.08;;
42616;SDS011;28250;52.320;0.360;2023-05-20T09:50:28;5.03;;;3.28;;
42616;SDS011;28250;52.320;0.360;2023-05-20T09:52:56;5.10;;;3.25;;
42616;SDS011;28250;52.320;0.360;2023-05-20T09:55:30;11.23;;;3.47;;
42616;SDS011;28250;52.320;0.360;2023-05-20T09:58:01;5.80;;;2.92;;
42616;SDS011;28250;52.320;0.360;2023-05-20T10:00:31;6.80;;;3.13;;
42616;SDS011;28250;52.320;0.360;2023-05-20T10:02:57;6.22;;;2.90;;
42616;SDS011;28250;52.320;0.360;2023-05-20T10:05:29;7.43;;;2.97;;
42616;SDS011;28250;52.320;0.360;2023-05-20T10:11:43;8.52;;;4.30;;
42616;SDS011;28250;52.320;0.360;2023-05-20T10:18:11;11.57;;;2.90;;
42616;SDS011;28250;52.320;0.360;2023-05-20T10:20:52;7.25;;;3.22;;
42616;SDS011;28250;52.320;0.360;2023-05-20T10:23:22;5.35;;;2.92;;
42616;SDS011;28250;52.320;0.360;2023-05-20T10:25:52;7.53;;;2.88;;
42616;SDS011;28250;52.320;0.360;2023-05-20T10:28:26;8.48;;;3.30;;
42616;SDS011;28250;52.320;0.360;2023-05-20T10:30:55;6.70;;;2.97;;
42616;SDS011;28250;52.320;0.360;2023-05-20T10:33:23;7.30;;;4.07;;
42616;SDS011;28250;52.320;0.360;2023-05-20T10:35:58;8.30;;;3.30;;
42616;SDS011;28250;52.320;0.360;2023-05-20T10:38:26;7.15;;;3.35;;
42616;SDS011;28250;52.320;0.360;2023-05-20T10:40:52;6.57;;;3.10;;
42616;SDS011;28250;52.320;0.360;2023-05-20T10:43:26;7.03;;;3.42;;
42616;SDS011;28250;52.320;0.360;2023-05-20T10:45:54;6.35;;;2.85;;
42616;SDS011;28250;52.320;0.360;2023-05-20T10:51:12;9.15;;;2.90;;
42616;SDS011;28250;52.320;0.360;2023-05-20T10:53:44;8.55;;;2.80;;
42616;SDS011;28250;52.320;0.360;2023-05-20T10:56:16;7.80;;;3.10;;
42616;SDS011;28250;52.320;0.360;2023-05-20T10:58:43;6.82;;;2.90;;
42616;SDS011;28250;52.320;0.360;2023-05-20T11:01:10;11.05;;;2.85;;
42616;SDS011;28250;52.320;0.360;2023-05-20T11:03:40;7.57;;;2.70;;
42616;SDS011;28250;52.320;0.360;2023-05-20T11:06:11;6.43;;;2.60;;
42616;SDS011;28250;52.320;0.360;2023-05-20T11:08:42;6.68;;;2.67;;
42616;SDS011;28250;52.320;0.360;2023-05-20T11:11:10;7.30;;;2.67;;
42616;SDS011;28250;52.320;0.360;2023-05-20T11:13:39;4.68;;;2.42;;
42616;SDS011;28250;52.320;0.360;2023-05-20T11:16:06;7.20;;;2.55;;
42616;SDS011;28250;52.320;0.360;2023-05-20T11:20:59;4.37;;;3.07;;
42616;SDS011;28250;52.320;0.360;2023-05-20T11:23:27;6.53;;;2.47;;
42616;SDS011;28250;52.320;0.360;2023-05-20T11:25:56;6.75;;;2.90;;
42616;SDS011;28250;52.320;0.360;2023-05-20T11:28:23;5.03;;;2.35;;
42616;SDS011;28250;52.320;0.360;2023-05-20T11:30:50;8.50;;;2.30;;
42616;SDS011;28250;52.320;0.360;2023-05-20T11:33:18;6.68;;;2.42;;
42616;SDS011;28250;52.320;0.360;2023-05-20T11:35:48;7.33;;;2.90;;
42616;SDS011;28250;52.320;0.360;2023-05-20T11:38:19;5.97;;;2.28;;
42616;SDS011;28250;52.320;0.360;2023-05-20T11:40:51;4.72;;;2.38;;
42616;SDS011;28250;52.320;0.360;2023-05-20T11:43:22;7.22;;;2.53;;
42616;SDS011;28250;52.320;0.360;2023-05-20T11:45:55;4.75;;;2.38;;
42616;SDS011;28250;52.320;0.360;2023-05-20T11:48:26;4.97;;;2.17;;
42616;SDS011;28250;52.320;0.360;2023-05-20T11:50:54;6.65;;;2.65;;
42616;SDS011;28250;52.320;0.360;2023-05-20T11:53:26;4.70;;;2.35;;
42616;SDS011;28250;52.320;0.360;2023-05-20T11:55:55;4.55;;;3.03;;
42616;SDS011;28250;52.320;0.360;2023-05-20T11:58:24;5.97;;;2.17;;
42616;SDS011;28250;52.320;0.360;2023-05-20T12:00:54;4.63;;;2.53;;
42616;SDS011;28250;52.320;0.360;2023-05-20T12:03:20;7.25;;;2.00;;
42616;SDS011;28250;52.320;0.360;2023-05-20T12:05:47;4.75;;;1.95;;
42616;SDS011;28250;52.320;0.360;2023-05-20T12:08:22;4.97;;;2.40;;
42616;SDS011;28250;52.320;0.360;2023-05-20T12:10:50;8.25;;;2.55;;
42616;SDS011;28250;52.320;0.360;2023-05-20T12:13:19;4.57;;;2.10;;
42616;SDS011;28250;52.320;0.360;2023-05-20T12:15:47;3.30;;;1.77;;
42616;SDS011;28250;52.320;0.360;2023-05-20T12:18:14;5.57;;;2.80;;
42616;SDS011;28250;52.320;0.360;2023-05-20T12:20:41;6.07;;;2.20;;
42616;SDS011;28250;52.320;0.360;2023-05-20T12:23:07;7.40;;;2.25;;
42616;SDS011;28250;52.320;0.360;2023-05-20T12:25:33;5.50;;;2.20;;
42616;SDS011;28250;52.320;0.360;2023-05-20T12:28:00;3.80;;;2.13;;
42616;SDS011;28250;52.320;0.360;2023-05-20T12:30:27;2.90;;;1.75;;
42616;SDS011;28250;52.320;0.360;2023-05-20T12:32:55;5.68;;;2.22;;
42616;SDS011;28250;52.320;0.360;2023-05-20T12:35:41;7.75;;;2.00;;
42616;SDS011;28250;52.320;0.360;2023-05-20T12:38:11;8.88;;;2.17;;
42616;SDS011;28250;52.320;0.360;2023-05-20T12:40:37;5.20;;;1.90;;
42616;SDS011;28250;52.320;0.360;2023-05-20T12:43:03;6.90;;;2.92;;
42616;SDS011;28250;52.320;0.360;2023-05-20T12:45:31;4.68;;;1.83;;
42616;SDS011;28250;52.320;0.360;2023-05-20T12:47:58;6.88;;;2.10;;
42616;SDS011;28250;52.320;0.360;2023-05-20T12:50:28;3.45;;;2.10;;
42616;SDS011;28250;52.320;0.360;2023-05-20T12:53:00;3.97;;;2.05;;
42616;SDS011;28250;52.320;0.360;2023-05-20T12:55:29;5.22;;;1.83;;
42616;SDS011;28250;52.320;0.360;2023-05-20T12:57:55;6.47;;;2.15;;
42616;SDS011;28250;52.320;0.360;2023-05-20T13:00:22;3.57;;;1.53;;
42616;SDS011;28250;52.320;0.360;2023-05-20T13:02:49;4.07;;;2.10;;
42616;SDS011;28250;52.320;0.360;2023-05-20T13:05:22;5.95;;;2.13;;
42616;SDS011;28250;52.320;0.360;2023-05-20T13:07:50;4.28;;;1.85;;
42616;SDS011;28250;52.320;0.360;2023-05-20T13:10:18;5.72;;;2.13;;
42616;SDS011;28250;52.320;0.360;2023-05-20T13:12:44;5.40;;;2.00;;
42616;SDS011;28250;52.320;0.360;2023-05-20T13:15:12;6.97;;;1.85;;
42616;SDS011;28250;52.320;0.360;2023-05-20T13:17:42;3.55;;;1.80;;
42616;SDS011;28250;52.320;0.360;2023-05-20T13:20:10;8.23;;;1.90;;
42616;SDS011;28250;52.320;0.360;2023-05-20T13:22:40;6.63;;;2.05;;
42616;SDS011;28250;52.320;0.360;2023-05-20T13:30:03;6.80;;;1.73;;
42616;SDS011;28250;52.320;0.360;2023-05-20T13:32:37;3.88;;;1.67;;
42616;SDS011;28250;52.320;0.360;2023-05-20T13:35:06;6.45;;;2.22;;
42616;SDS011;28250;52.320;0.360;2023-05-20T13:37:33;5.38;;;1.92;;
42616;SDS011;28250;52.320;0.360;2023-05-20T13:40:03;5.50;;;1.80;;
42616;SDS011;28250;52.320;0.360;2023-05-20T13:42:32;6.85;;;1.80;;
42616;SDS011;28250;52.320;0.360;2023-05-20T13:45:07;3.20;;;1.85;;
42616;SDS011;28250;52.320;0.360;2023-05-20T13:47:41;3.28;;;1.50;;
42616;SDS011;28250;52.320;0.360;2023-05-20T13:50:10;6.57;;;1.70;;
42616;SDS011;28250;52.320;0.360;2023-05-20T13:52:36;6.65;;;1.70;;
42616;SDS011;28250;52.320;0.360;2023-05-20T13:55:06;8.68;;;1.58;;
42616;SDS011;28250;52.320;0.360;2023-05-20T13:57:33;4.57;;;2.13;;
42616;SDS011;28250;52.320;0.360;2023-05-20T14:00:00;3.65;;;1.33;;
42616;SDS011;28250;52.320;0.360;2023-05-20T14:02:34;3.95;;;1.50;;
42616;SDS011;28250;52.320;0.360;2023-05-20T14:05:01;4.15;;;1.35;;
42616;SDS011;28250;52.320;0.360;2023-05-20T14:07:27;6.28;;;1.77;;
42616;SDS011;28250;52.320;0.360;2023-05-20T14:09:53;4.87;;;1.57;;
42616;SDS011;28250;52.320;0.360;2023-05-20T14:12:20;5.43;;;1.40;;
42616;SDS011;28250;52.320;0.360;2023-05-20T14:14:48;3.58;;;1.80;;
42616;SDS011;28250;52.320;0.360;2023-05-20T14:17:14;4.85;;;1.80;;
42616;SDS011;28250;52.320;0.360;2023-05-20T14:19:41;4.40;;;1.70;;
42616;SDS011;28250;52.320;0.360;2023-05-20T14:22:07;4.47;;;1.27;;
42616;SDS011;28250;52.320;0.360;2023-05-20T14:24:34;3.58;;;1.30;;
42616;SDS011;28250;52.320;0.360;2023-05-20T14:27:00;3.30;;;1.38;;
42616;SDS011;28250;52.320;0.360;2023-05-20T14:29:26;4.70;;;1.45;;
42616;SDS011;28250;52.320;0.360;2023-05-20T14:31:52;2.00;;;1.50;;
42616;SDS011;28250;52.320;0.360;2023-05-20T14:34:19;2.65;;;1.50;;
42616;SDS011;28250;52.320;0.360;2023-05-20T14:36:46;2.83;;;1.60;;
42616;SDS011;28250;52.320;0.360;2023-05-20T14:39:12;5.30;;;1.80;;
42616;SDS011;28250;52.320;0.360;2023-05-20T14:41:38;2.45;;;1.65;;
42616;SDS011;28250;52.320;0.360;2023-05-20T14:44:04;5.22;;;2.28;;
42616;SDS011;28250;52.320;0.360;2023-05-20T14:46:31;5.18;;;1.73;;
42616;SDS011;28250;52.320;0.360;2023-05-20T14:48:57;5.30;;;1.77;;
42616;SDS011;28250;52.320;0.360;2023-05-20T14:51:23;3.97;;;1.50;;
42616;SDS011;28250;52.320;0.360;2023-05-20T14:53:49;4.30;;;1.70;;
42616;SDS011;28250;52.320;0.360;2023-05-20T14:56:15;5.10;;;1.73;;
42616;SDS011;28250;52.320;0.360;2023-05-20T14:58:41;6.75;;;2.33;;
42616;SDS011;28250;52.320;0.360;2023-05-20T15:01:07;3.60;;;1.58;;
42616;SDS011;28250;52.320;0.360;2023-05-20T15:03:34;5.05;;;1.80;;
42616;SDS011;28250;52.320;0.360;2023-05-20T15:06:00;4.30;;;1.30;;
42616;SDS011;28250;52.320;0.360;2023-05-20T15:08:26;4.10;;;1.63;;
42616;SDS011;28250;52.320;0.360;2023-05-20T15:10:52;4.20;;;1.73;;